KPVF

Details ICAO KPVF
Name Placerville Airport
Region United States
Timezone America/Los_Angeles (UTC-7.0)
Plans Departing 34
Arriving 39
Stats Elevation 2,585 ft / 788 m (AMSL)
Location 38.724200° -120.753000°
Runways 1
Magnetic Variation 13.047° E
Sunrise 2021-10-21 14:19:44 UTC / 2021-10-21 07:19:44 Local
Sunset 2021-10-22 01:17:43 UTC / 2021-10-21 18:17:43 Local
Advertisement - Login to hide

Runways

ID Width Length Bearing (true/mag) Surface Threshold Overrun Markings Lighting
05 75 ft / 23 m 3,914 ft / 1,193 m 62.78° / 49.73° ASPHALT 0 ft / 0 m 151 ft / 46 m VISUAL EDGE THRESHOLD
23 75 ft / 23 m 3,914 ft / 1,193 m 242.78° / 229.74° ASPHALT 0 ft / 0 m 138 ft / 42 m VISUAL EDGE THRESHOLD

Map

Weather


0- 5 10 15 20 25 30 35+ Temperature / °C

Clouds and Precipitation
Forecast for 2021-10-21 18:00 UTC. Updated 6 minutes ago

Ground ~20,000 ft ~40,000 ft Winds

METAR

KPVF 211515Z AUTO 14007KT 10SM BKN018 OVC024 14/14 A3017 RMK AO1

TAF

Not found

Frequencies

Departure 127.40 MHz NORCAL Departure
Recorded 128.12 MHz WX AWOS
Unicom 122.80 MHz CTAF/UNICOM
Approach 127.40 MHz NORCAL Approach
Warning: Do not use this data for real-world aviation or navigation. No guarantee of current accuracy is given.